createdAt,value
2018-11-10T00:02:08.891Z,7.70
2018-11-10T00:04:36.955Z,8.37
2018-11-10T00:07:05.170Z,7.37
2018-11-10T00:09:33.503Z,7.43
2018-11-10T00:12:01.893Z,7.50
2018-11-10T00:14:29.999Z,9.47
2018-11-10T00:16:58.042Z,6.33
2018-11-10T00:19:26.129Z,7.53
2018-11-10T00:21:54.413Z,6.33
2018-11-10T00:24:22.779Z,6.43
2018-11-10T00:26:50.848Z,6.77
2018-11-10T00:29:18.937Z,5.50
2018-11-10T00:31:47.017Z,8.77
2018-11-10T00:34:15.146Z,8.50
2018-11-10T00:36:43.271Z,6.63
2018-11-10T00:39:11.363Z,7.43
2018-11-10T00:41:39.436Z,6.73
2018-11-10T00:44:08.003Z,5.80
2018-11-10T00:46:36.129Z,5.93
2018-11-10T00:49:04.675Z,7.00
2018-11-10T00:51:32.755Z,6.30
2018-11-10T00:54:01.092Z,6.23
2018-11-10T00:56:29.378Z,5.53
2018-11-10T00:58:57.464Z,6.33
2018-11-10T01:01:25.550Z,6.70
2018-11-10T01:03:53.926Z,6.03
2018-11-10T01:06:21.984Z,5.53
2018-11-10T01:08:50.298Z,4.90
2018-11-10T01:11:18.394Z,5.53
2018-11-10T01:16:35.973Z,4.90
2018-11-10T01:19:04.211Z,5.73
2018-11-10T01:21:32.511Z,5.77
2018-11-10T01:24:00.636Z,6.00
2018-11-10T01:26:28.767Z,6.20
2018-11-10T01:28:57.601Z,5.20
2018-11-10T01:31:25.675Z,6.27
2018-11-10T01:33:54.190Z,6.10
2018-11-10T01:36:22.308Z,5.10
2018-11-10T01:38:50.524Z,4.93
2018-11-10T01:41:19.736Z,5.67
2018-11-10T01:43:49.756Z,6.27
2018-11-10T01:46:19.247Z,4.90
2018-11-10T01:48:47.912Z,5.57
2018-11-10T01:51:19.485Z,7.50
2018-11-10T01:53:48.220Z,6.73
2018-11-10T01:56:16.820Z,5.37
2018-11-10T01:58:45.232Z,5.93
2018-11-10T02:01:13.621Z,5.80
2018-11-10T02:03:41.751Z,6.67
2018-11-10T02:06:10.059Z,5.30
2018-11-10T02:08:38.153Z,7.43
2018-11-10T02:11:07.082Z,4.40
2018-11-10T02:13:35.184Z,5.87
2018-11-10T02:16:03.276Z,4.43
2018-11-10T02:18:31.406Z,6.07
2018-11-10T02:21:00.879Z,4.33
2018-11-10T02:23:30.178Z,4.63
2018-11-10T02:25:58.947Z,7.00
2018-11-10T02:28:27.051Z,5.23
2018-11-10T02:30:55.168Z,5.77
2018-11-10T02:33:25.559Z,7.60
2018-11-10T02:35:55.121Z,5.10
2018-11-10T02:38:23.390Z,4.50
2018-11-10T02:40:51.541Z,4.03
2018-11-10T02:43:19.718Z,5.60
2018-11-10T02:45:47.835Z,6.13
2018-11-10T02:48:15.947Z,4.40
2018-11-10T02:50:44.123Z,4.70
2018-11-10T02:53:12.305Z,6.17
2018-11-10T02:55:40.483Z,4.03
2018-11-10T02:58:08.607Z,5.80
2018-11-10T03:00:36.823Z,4.20
2018-11-10T03:03:05.024Z,5.17
2018-11-10T03:05:33.149Z,5.57
2018-11-10T03:08:01.271Z,6.80
2018-11-10T03:10:29.373Z,6.07
2018-11-10T03:12:57.476Z,3.97
2018-11-10T03:15:25.650Z,4.13
2018-11-10T03:17:53.759Z,6.33
2018-11-10T03:20:22.162Z,4.07
2018-11-10T03:22:50.338Z,5.97
2018-11-10T03:25:18.439Z,5.93
2018-11-10T03:27:46.523Z,5.90
2018-11-10T03:30:14.672Z,4.27
2018-11-10T03:32:42.747Z,4.27
2018-11-10T03:35:10.999Z,4.97
2018-11-10T03:37:39.489Z,3.63
2018-11-10T03:40:08.671Z,4.33
2018-11-10T03:42:37.080Z,3.63
2018-11-10T03:45:05.410Z,3.80
2018-11-10T03:47:33.531Z,6.20
2018-11-10T03:50:01.620Z,4.47
2018-11-10T03:52:29.951Z,4.27
2018-11-10T03:54:58.111Z,4.70
2018-11-10T03:57:26.220Z,5.70
2018-11-10T03:59:54.359Z,3.47
2018-11-10T04:02:22.468Z,4.73
2018-11-10T04:04:50.594Z,3.60
2018-11-10T04:07:18.741Z,3.63
2018-11-10T04:09:46.824Z,3.30
2018-11-10T04:12:14.923Z,4.07
2018-11-10T04:14:43.177Z,4.03
2018-11-10T04:17:11.385Z,3.77
2018-11-10T04:19:39.574Z,3.63
2018-11-10T04:22:07.670Z,3.40
2018-11-10T04:24:35.834Z,3.63
2018-11-10T04:27:03.950Z,3.83
2018-11-10T04:29:32.127Z,5.10
2018-11-10T04:32:00.211Z,3.70
2018-11-10T04:34:28.319Z,3.50
2018-11-10T04:36:56.503Z,5.37
2018-11-10T04:39:24.726Z,4.17
2018-11-10T04:41:52.825Z,4.00
2018-11-10T04:44:20.950Z,3.60
2018-11-10T04:46:49.143Z,4.17
2018-11-10T04:49:17.287Z,4.40
2018-11-10T04:51:45.400Z,3.70
2018-11-10T04:54:13.493Z,3.80
2018-11-10T04:56:41.638Z,3.73
2018-11-10T04:59:09.722Z,3.73
2018-11-10T05:01:37.894Z,3.73
2018-11-10T05:04:06.221Z,6.23
2018-11-10T05:06:34.342Z,4.87
2018-11-10T05:09:02.730Z,4.63
2018-11-10T05:11:30.888Z,11.20
2018-11-10T05:13:58.984Z,5.20
2018-11-10T05:16:27.075Z,3.20
2018-11-10T05:18:55.181Z,4.03
2018-11-10T05:21:23.394Z,4.47
2018-11-10T05:23:51.490Z,3.80
2018-11-10T05:26:19.599Z,3.63
2018-11-10T05:28:47.731Z,4.37
2018-11-10T05:31:16.168Z,3.50
2018-11-10T05:33:44.825Z,3.17
2018-11-10T05:36:12.907Z,3.30
2018-11-10T05:38:41.019Z,3.10
2018-11-10T05:41:09.204Z,6.37
2018-11-10T05:43:37.316Z,5.63
2018-11-10T05:46:05.795Z,3.47
2018-11-10T05:48:33.915Z,4.40
2018-11-10T05:51:02.453Z,3.27
2018-11-10T05:53:30.554Z,6.20
2018-11-10T05:55:58.694Z,2.73
2018-11-10T05:58:26.932Z,2.70
2018-11-10T06:00:55.076Z,2.77
2018-11-10T06:03:23.285Z,3.33
2018-11-10T06:05:51.387Z,3.10
2018-11-10T06:08:19.483Z,3.37
2018-11-10T06:10:47.630Z,3.93
2018-11-10T06:13:15.856Z,3.13
2018-11-10T06:15:43.956Z,3.00
2018-11-10T06:18:12.056Z,3.90
2018-11-10T06:20:40.194Z,3.10
2018-11-10T06:23:08.310Z,2.97
2018-11-10T06:25:36.446Z,3.53
2018-11-10T06:28:04.955Z,5.63
2018-11-10T06:30:33.044Z,2.93
2018-11-10T06:33:01.307Z,3.80
2018-11-10T06:35:29.417Z,3.90
2018-11-10T06:37:57.504Z,4.43
2018-11-10T06:40:25.615Z,3.37
2018-11-10T06:42:53.738Z,7.60
2018-11-10T06:45:21.866Z,4.93
2018-11-10T06:47:49.963Z,15.67
2018-11-10T06:50:18.044Z,7.90
2018-11-10T06:52:46.157Z,5.67
2018-11-10T06:55:14.421Z,9.87
2018-11-10T06:57:42.585Z,15.20
2018-11-10T07:00:12.324Z,20.23
2018-11-10T07:02:40.878Z,16.07
2018-11-10T07:05:09.396Z,19.50
2018-11-10T07:07:37.963Z,21.60
2018-11-10T07:10:06.607Z,21.53
2018-11-10T07:12:34.756Z,22.47
2018-11-10T07:15:03.010Z,16.40
2018-11-10T07:17:31.126Z,21.87
2018-11-10T07:19:59.226Z,19.27
2018-11-10T07:22:27.307Z,22.37
2018-11-10T07:24:55.484Z,15.70
2018-11-10T07:27:23.506Z,12.10
2018-11-10T07:29:51.610Z,13.37
2018-11-10T07:32:19.756Z,16.77
2018-11-10T07:34:47.896Z,11.43
2018-11-10T07:37:27.963Z,15.47
2018-11-10T07:39:56.035Z,11.47
2018-11-10T07:42:24.097Z,16.17
2018-11-10T07:44:52.180Z,12.30
2018-11-10T07:47:20.251Z,16.17
2018-11-10T07:49:48.350Z,16.57
2018-11-10T07:52:16.431Z,14.63
2018-11-10T07:54:44.599Z,19.93
2018-11-10T07:57:12.674Z,19.20
2018-11-10T07:59:40.750Z,26.43
2018-11-10T08:02:08.910Z,20.37
2018-11-10T08:04:37.077Z,22.27
2018-11-10T08:07:05.378Z,23.97
2018-11-10T08:09:33.470Z,33.03
2018-11-10T08:12:01.820Z,24.70
2018-11-10T08:14:29.815Z,20.13
2018-11-10T08:16:57.877Z,17.93
2018-11-10T08:19:25.953Z,26.63
2018-11-10T08:21:54.011Z,17.63
2018-11-10T08:24:22.086Z,14.37
2018-11-10T08:26:50.225Z,19.83
2018-11-10T08:29:18.306Z,14.80
2018-11-10T08:31:46.371Z,18.20
2018-11-10T08:34:14.451Z,16.97
2018-11-10T08:36:42.508Z,16.37
2018-11-10T08:39:11.184Z,20.30
2018-11-10T08:41:39.256Z,15.10
2018-11-10T08:44:07.688Z,25.57
2018-11-10T08:46:36.294Z,20.93
2018-11-10T08:49:04.386Z,15.93
2018-11-10T08:51:32.433Z,13.47
2018-11-10T08:54:00.503Z,13.60
2018-11-10T08:56:28.566Z,20.80
2018-11-10T08:58:56.676Z,20.27
2018-11-10T09:01:24.719Z,17.07
2018-11-10T09:03:52.779Z,21.93
2018-11-10T09:06:21.063Z,12.40
2018-11-10T09:08:49.127Z,16.90
2018-11-10T09:11:17.205Z,13.83
2018-11-10T09:13:45.296Z,11.70
2018-11-10T09:16:13.467Z,19.23
2018-11-10T09:18:41.839Z,11.40
2018-11-10T09:21:09.970Z,18.37
2018-11-10T09:23:37.975Z,15.37
2018-11-10T09:26:06.053Z,20.67
2018-11-10T09:28:34.188Z,17.93
2018-11-10T09:31:02.307Z,14.83
2018-11-10T09:33:30.326Z,17.27
2018-11-10T09:35:58.606Z,15.70
2018-11-10T09:38:26.679Z,12.53
2018-11-10T09:40:54.764Z,16.13
2018-11-10T09:43:22.839Z,14.57
2018-11-10T09:45:50.915Z,12.47
2018-11-10T09:48:18.966Z,13.77
2018-11-10T09:50:47.085Z,11.13
2018-11-10T09:53:15.141Z,13.33
2018-11-10T09:55:43.206Z,16.00
2018-11-10T09:58:11.279Z,13.07
2018-11-10T10:00:39.342Z,24.77
2018-11-10T10:03:07.407Z,16.30
2018-11-10T10:05:35.479Z,17.90
2018-11-10T10:08:03.534Z,12.83
2018-11-10T10:10:31.599Z,16.03
2018-11-10T10:12:59.662Z,16.03
2018-11-10T10:15:27.736Z,15.80
2018-11-10T10:17:55.790Z,17.80
2018-11-10T10:20:23.871Z,12.50
2018-11-10T10:22:51.922Z,15.53
2018-11-10T10:25:20.428Z,16.43
2018-11-10T10:27:49.195Z,11.47
2018-11-10T10:30:18.830Z,12.27
2018-11-10T10:32:47.695Z,14.27
2018-11-10T10:35:16.028Z,14.47
2018-11-10T10:37:44.959Z,11.67
2018-11-10T10:40:13.759Z,11.50
2018-11-10T10:42:42.042Z,15.30
2018-11-10T10:45:11.955Z,18.73
2018-11-10T10:47:40.107Z,14.10
2018-11-10T10:50:10.047Z,13.30
2018-11-10T10:52:38.110Z,15.60
2018-11-10T10:55:06.171Z,13.10
2018-11-10T10:57:34.262Z,11.30
2018-11-10T11:00:02.335Z,13.57
2018-11-10T11:02:35.853Z,17.80
2018-11-10T11:05:09.010Z,17.10
2018-11-10T11:07:37.074Z,9.53
2018-11-10T11:10:06.095Z,14.03
2018-11-10T11:12:34.162Z,11.67
2018-11-10T11:15:02.335Z,18.40
2018-11-10T11:17:30.351Z,12.90
2018-11-10T11:19:58.430Z,21.47
2018-11-10T11:22:26.719Z,28.17
2018-11-10T11:24:54.838Z,21.70
2018-11-10T11:27:22.903Z,19.67
2018-11-10T11:29:51.072Z,12.70
2018-11-10T11:32:19.069Z,15.73
2018-11-10T11:34:47.110Z,15.90
2018-11-10T11:37:15.194Z,16.67
2018-11-10T11:39:43.259Z,16.03
2018-11-10T11:42:11.326Z,17.37
2018-11-10T11:44:39.387Z,17.67
2018-11-10T11:47:07.458Z,14.73
2018-11-10T11:49:35.536Z,13.57
2018-11-10T11:52:03.607Z,14.73
2018-11-10T11:54:31.674Z,9.73
2018-11-10T11:56:59.746Z,9.13
2018-11-10T11:59:28.039Z,14.57
2018-11-10T12:01:56.152Z,11.40
2018-11-10T12:04:24.217Z,10.63
2018-11-10T12:06:52.224Z,11.40
2018-11-10T12:09:20.279Z,13.03
2018-11-10T12:11:48.354Z,11.27
2018-11-10T12:14:16.420Z,11.27
2018-11-10T12:16:44.491Z,10.30
2018-11-10T12:19:12.552Z,10.07
2018-11-10T12:21:40.670Z,11.20
2018-11-10T12:24:08.746Z,7.57
2018-11-10T12:26:36.846Z,14.37
2018-11-10T12:29:05.095Z,9.00
2018-11-10T12:31:33.187Z,8.63
2018-11-10T12:34:01.242Z,9.53
2018-11-10T12:36:29.836Z,10.33
2018-11-10T12:38:58.087Z,10.93
2018-11-10T12:41:26.307Z,10.33
2018-11-10T12:43:54.598Z,10.27
2018-11-10T12:46:22.684Z,11.37
2018-11-10T12:48:50.773Z,9.27
2018-11-10T12:51:18.807Z,8.60
2018-11-10T12:53:46.882Z,10.13
2018-11-10T12:56:14.939Z,10.53
2018-11-10T12:58:43.034Z,10.20
2018-11-10T13:01:11.087Z,6.63
2018-11-10T13:03:39.225Z,8.20
2018-11-10T13:06:07.259Z,12.90
2018-11-10T13:08:35.360Z,10.20
2018-11-10T13:11:03.417Z,7.23
2018-11-10T13:13:31.685Z,8.93
2018-11-10T13:15:59.735Z,7.47
2018-11-10T13:18:28.032Z,9.10
2018-11-10T13:20:56.084Z,7.87
2018-11-10T13:23:24.185Z,6.77
2018-11-10T13:25:52.235Z,8.40
2018-11-10T13:28:20.315Z,6.53
2018-11-10T13:30:48.413Z,6.73
2018-11-10T13:33:16.443Z,10.60
2018-11-10T13:35:44.539Z,8.20
2018-11-10T13:38:12.672Z,6.40
2018-11-10T13:40:40.694Z,5.43
2018-11-10T13:43:08.826Z,6.20
2018-11-10T13:45:36.855Z,6.73
2018-11-10T13:48:04.976Z,6.13
2018-11-10T13:50:33.121Z,6.80
2018-11-10T13:53:01.620Z,8.10
2018-11-10T13:55:29.165Z,7.60
2018-11-10T13:57:57.251Z,6.67
2018-11-10T14:00:25.310Z,8.70
2018-11-10T14:02:53.382Z,6.30
2018-11-10T14:05:21.486Z,6.27
2018-11-10T14:07:49.541Z,7.83
2018-11-10T14:10:17.649Z,5.93
2018-11-10T14:12:46.517Z,6.20
2018-11-10T14:15:14.552Z,7.23
2018-11-10T14:17:43.126Z,5.77
2018-11-10T14:20:12.943Z,7.03
2018-11-10T14:22:41.349Z,6.23
2018-11-10T14:25:11.316Z,5.40
2018-11-10T14:27:40.183Z,6.67
2018-11-10T14:30:10.630Z,6.33
2018-11-10T14:32:38.910Z,4.97
2018-11-10T14:35:07.889Z,6.77
2018-11-10T14:37:36.158Z,8.03
2018-11-10T14:40:05.720Z,6.40
2018-11-10T14:42:33.767Z,6.70
2018-11-10T14:45:01.874Z,7.47
2018-11-10T14:47:29.919Z,6.43
2018-11-10T14:49:58.026Z,7.00
2018-11-10T14:52:26.164Z,5.87
2018-11-10T14:54:54.203Z,5.40
2018-11-10T14:57:22.267Z,5.40
2018-11-10T14:59:50.333Z,6.60
2018-11-10T15:02:18.394Z,6.00
2018-11-10T15:04:46.466Z,5.90
2018-11-10T15:07:14.902Z,5.80
2018-11-10T15:09:42.978Z,4.50
2018-11-10T15:12:11.083Z,5.23
2018-11-10T15:14:39.107Z,6.47
2018-11-10T15:17:07.187Z,5.27
2018-11-10T15:19:35.251Z,5.63
2018-11-10T15:22:03.675Z,5.93
2018-11-10T15:24:31.751Z,5.33
2018-11-10T15:26:59.817Z,6.10
2018-11-10T15:29:27.886Z,6.67
2018-11-10T15:31:55.959Z,4.77
2018-11-10T15:34:24.042Z,5.80
2018-11-10T15:36:52.419Z,4.63
2018-11-10T15:39:20.506Z,5.80
2018-11-10T15:41:48.571Z,5.70
2018-11-10T15:44:16.622Z,5.33
2018-11-10T15:46:44.959Z,5.27
2018-11-10T15:49:13.207Z,4.47
2018-11-10T15:51:41.298Z,5.67
2018-11-10T15:54:09.353Z,6.20
2018-11-10T15:56:37.848Z,4.60
2018-11-10T15:59:06.218Z,6.40
2018-11-10T16:01:34.302Z,4.73
2018-11-10T16:04:02.367Z,4.63
2018-11-10T16:06:30.426Z,6.27
2018-11-10T16:08:58.533Z,4.20
2018-11-10T16:11:26.615Z,4.93
2018-11-10T16:13:54.670Z,6.57
2018-11-10T16:16:22.774Z,5.50
2018-11-10T16:18:50.892Z,4.63
2018-11-10T16:21:18.978Z,4.33
2018-11-10T16:23:47.042Z,4.10
2018-11-10T16:26:15.122Z,4.17
2018-11-10T16:28:43.237Z,4.20
2018-11-10T16:31:11.289Z,5.40
2018-11-10T16:33:39.402Z,5.17
2018-11-10T16:36:07.471Z,5.37
2018-11-10T16:38:35.651Z,4.13
2018-11-10T16:41:03.718Z,6.87
2018-11-10T16:43:31.791Z,4.23
2018-11-10T16:45:59.894Z,4.80
2018-11-10T16:48:27.978Z,5.47
2018-11-10T16:50:56.072Z,4.90
2018-11-10T16:53:24.158Z,4.80
2018-11-10T16:55:52.206Z,5.50
2018-11-10T16:58:20.278Z,4.70
2018-11-10T17:00:48.346Z,4.50
2018-11-10T17:03:16.415Z,4.83
2018-11-10T17:05:44.741Z,4.03
2018-11-10T17:08:12.827Z,4.33
2018-11-10T17:10:40.862Z,5.30
2018-11-10T17:13:08.925Z,4.70
2018-11-10T17:15:37.113Z,4.10
2018-11-10T17:18:05.059Z,5.40
2018-11-10T17:20:33.138Z,4.50
2018-11-10T17:23:01.227Z,4.07
2018-11-10T17:25:29.794Z,4.77
2018-11-10T17:27:58.157Z,4.00
2018-11-10T17:30:26.235Z,4.00
2018-11-10T17:32:54.268Z,5.03
2018-11-10T17:35:22.406Z,4.90
2018-11-10T17:37:50.491Z,4.87
2018-11-10T17:40:18.580Z,4.80
2018-11-10T17:42:46.861Z,4.43
2018-11-10T17:45:16.275Z,4.63
2018-11-10T17:47:44.562Z,4.50
2018-11-10T17:50:14.105Z,4.33
2018-11-10T17:52:42.254Z,6.63
2018-11-10T17:55:11.823Z,3.93
2018-11-10T17:57:40.486Z,4.30
2018-11-10T18:00:08.476Z,4.80
2018-11-10T18:02:36.538Z,4.50
2018-11-10T18:05:05.475Z,4.43
2018-11-10T18:07:33.543Z,3.60
2018-11-10T18:10:01.604Z,4.00
2018-11-10T18:12:29.726Z,3.80
2018-11-10T18:14:57.779Z,4.20
2018-11-10T18:17:26.315Z,4.40
2018-11-10T18:19:54.362Z,4.03
2018-11-10T18:22:22.719Z,4.10
2018-11-10T18:24:50.787Z,3.70
2018-11-10T18:27:18.864Z,5.27
2018-11-10T18:29:46.946Z,4.70
2018-11-10T18:32:15.017Z,3.43
2018-11-10T18:34:43.075Z,4.10
2018-11-10T18:37:11.151Z,3.80
2018-11-10T18:39:39.299Z,4.47
2018-11-10T18:42:07.295Z,4.40
2018-11-10T18:44:35.350Z,3.60
2018-11-10T18:47:03.443Z,4.63
2018-11-10T18:49:31.523Z,4.00
2018-11-10T18:51:59.594Z,4.40
2018-11-10T18:54:27.779Z,3.80
2018-11-10T18:56:55.957Z,3.80
2018-11-10T18:59:23.968Z,3.33
2018-11-10T19:01:52.026Z,4.33
2018-11-10T19:04:20.108Z,3.13
2018-11-10T19:06:48.179Z,3.93
2018-11-10T19:09:16.250Z,3.87
2018-11-10T19:11:44.317Z,3.43
2018-11-10T19:14:12.383Z,3.87
2018-11-10T19:16:40.450Z,3.50
2018-11-10T19:19:08.886Z,3.33
2018-11-10T19:21:36.983Z,4.43
2018-11-10T19:24:05.631Z,3.63
2018-11-10T19:26:33.670Z,4.17
2018-11-10T19:29:02.030Z,4.07
2018-11-10T19:31:30.134Z,4.13
2018-11-10T19:33:58.384Z,3.83
2018-11-10T19:36:26.515Z,4.10
2018-11-10T19:38:54.578Z,3.43
2018-11-10T19:41:22.658Z,3.63
2018-11-10T19:43:50.727Z,4.00
2018-11-10T19:46:18.803Z,3.37
2018-11-10T19:48:46.896Z,3.90
2018-11-10T19:51:15.996Z,3.40
2018-11-10T19:53:44.227Z,3.60
2018-11-10T19:56:12.800Z,3.20
2018-11-10T19:58:41.088Z,3.43
2018-11-10T20:01:10.066Z,3.83
2018-11-10T20:03:38.198Z,3.93
2018-11-10T20:06:06.280Z,3.50
2018-11-10T20:08:34.378Z,3.67
2018-11-10T20:11:02.446Z,3.73
2018-11-10T20:13:30.522Z,3.50
2018-11-10T20:15:58.627Z,3.73
2018-11-10T20:18:26.682Z,4.23
2018-11-10T20:20:54.750Z,3.50
2018-11-10T20:23:22.807Z,3.50
2018-11-10T20:25:50.875Z,3.67
2018-11-10T20:28:18.930Z,3.57
2018-11-10T20:30:47.007Z,3.67
2018-11-10T20:33:15.090Z,3.97
2018-11-10T20:35:43.162Z,3.37
2018-11-10T20:38:11.231Z,4.10
2018-11-10T20:40:39.298Z,3.93
2018-11-10T20:43:07.361Z,3.43
2018-11-10T20:45:35.439Z,3.70
2018-11-10T20:48:03.514Z,3.77
2018-11-10T20:50:31.611Z,3.30
2018-11-10T20:52:59.703Z,3.57
2018-11-10T20:55:27.779Z,3.50
2018-11-10T20:57:55.870Z,5.13
2018-11-10T21:00:23.950Z,4.40
2018-11-10T21:02:52.285Z,3.40
2018-11-10T21:05:20.336Z,3.27
2018-11-10T21:07:48.399Z,4.10
2018-11-10T21:10:17.898Z,3.70
2018-11-10T21:12:46.737Z,3.87
2018-11-10T21:15:15.663Z,3.77
2018-11-10T21:17:43.946Z,3.40
2018-11-10T21:20:12.693Z,3.77
2018-11-10T21:22:40.767Z,3.63
2018-11-10T21:25:10.403Z,4.00
2018-11-10T21:27:38.788Z,3.57
2018-11-10T21:30:08.402Z,3.43
2018-11-10T21:32:36.389Z,3.53
2018-11-10T21:35:05.107Z,3.60
2018-11-10T21:37:33.148Z,3.53
2018-11-10T21:40:01.209Z,4.23
2018-11-10T21:42:29.579Z,3.33
2018-11-10T21:44:57.636Z,3.07
2018-11-10T21:47:25.714Z,3.27
2018-11-10T21:49:53.881Z,4.50
2018-11-10T21:52:21.854Z,3.50
2018-11-10T21:54:50.177Z,3.30
2018-11-10T21:57:18.326Z,3.33
2018-11-10T21:59:46.388Z,3.17
2018-11-10T22:02:14.473Z,3.93
2018-11-10T22:04:42.530Z,3.37
2018-11-10T22:07:10.610Z,3.07
2018-11-10T22:09:38.767Z,3.17
2018-11-10T22:12:06.735Z,3.20
2018-11-10T22:14:34.802Z,3.17
2018-11-10T22:17:02.867Z,3.20
2018-11-10T22:19:30.934Z,3.37
2018-11-10T22:21:58.998Z,3.50
2018-11-10T22:24:27.075Z,3.63
2018-11-10T22:26:55.130Z,3.60
2018-11-10T22:29:23.205Z,3.63
2018-11-10T22:31:51.271Z,3.43
2018-11-10T22:34:19.358Z,3.40
2018-11-10T22:36:47.415Z,3.10
2018-11-10T22:39:15.543Z,3.13
2018-11-10T22:41:43.623Z,2.70
2018-11-10T22:44:11.687Z,3.40
2018-11-10T22:46:39.766Z,2.93
2018-11-10T22:49:07.850Z,3.27
2018-11-10T22:51:35.915Z,5.47
2018-11-10T22:54:04.116Z,3.20
2018-11-10T22:56:32.192Z,3.10
2018-11-10T22:59:00.262Z,3.50
2018-11-10T23:01:32.210Z,3.20
2018-11-10T23:04:00.509Z,3.13
2018-11-10T23:06:28.581Z,3.10
2018-11-10T23:08:56.631Z,3.00
2018-11-10T23:11:25.002Z,2.87
2018-11-10T23:13:53.087Z,3.50
2018-11-10T23:16:21.163Z,3.20
2018-11-10T23:18:49.239Z,3.60
2018-11-10T23:21:17.299Z,2.93
2018-11-10T23:23:45.371Z,3.83
2018-11-10T23:26:13.681Z,3.40
2018-11-10T23:28:41.767Z,3.40
2018-11-10T23:31:09.827Z,3.17
2018-11-10T23:33:37.930Z,2.90
2018-11-10T23:36:05.978Z,2.80
2018-11-10T23:38:34.152Z,2.93
2018-11-10T23:41:02.219Z,2.90
2018-11-10T23:43:30.279Z,3.10
2018-11-10T23:45:58.666Z,2.97
2018-11-10T23:48:26.752Z,2.93
2018-11-10T23:50:54.807Z,2.80
2018-11-10T23:53:22.876Z,2.70
2018-11-10T23:55:50.946Z,2.77
2018-11-10T23:58:19.402Z,3.40
